createdAt,value
2024-04-05T00:00:03.566Z,0.000619684
2024-04-05T00:05:02.839Z,0.000688538
2024-04-05T00:10:03.103Z,0.00055083
2024-04-05T00:15:02.618Z,0.000619684
2024-04-05T00:20:02.938Z,0.000619684
2024-04-05T00:25:02.518Z,0.000619684
2024-04-05T00:30:02.859Z,0.000619684
2024-04-05T00:35:03.207Z,0.000619684
2024-04-05T00:40:02.429Z,0.000555421
2024-04-05T00:45:02.659Z,0.000619684
2024-04-05T00:50:02.944Z,0.000619684
2024-04-05T00:55:02.168Z,0.000619684
2024-04-05T01:00:02.511Z,0.000881328
2024-04-05T01:05:02.760Z,0.000815374
2024-04-05T01:10:04.109Z,0.00178528
2024-04-05T01:15:02.592Z,0.000826245
2024-04-05T01:20:02.904Z,0.000749741
2024-04-05T01:25:02.135Z,0.000826245
2024-04-05T01:30:02.363Z,0.002823005
2024-04-05T01:35:03.751Z,0.001927906
2024-04-05T01:40:03.134Z,0.003327337
2024-04-05T01:45:02.411Z,0.003547649
2024-04-05T01:50:03.516Z,0.002160119
2024-04-05T01:55:02.850Z,0.001927906
2024-04-05T02:00:03.871Z,0.000904488
2024-04-05T02:05:03.876Z,0.002094532
2024-04-05T02:10:02.170Z,0.00200555
2024-04-05T02:15:02.508Z,0.000963953
2024-04-05T02:20:02.847Z,0.000826245
2024-04-05T02:25:03.092Z,0.000757392
2024-04-05T02:30:02.397Z,0.00096994
2024-04-05T02:35:02.710Z,0.000865163
2024-04-05T02:40:02.960Z,0.001255988
2024-04-05T02:45:02.927Z,0.002685298
2024-04-05T02:50:02.819Z,0.00199676
2024-04-05T02:55:03.184Z,0.001214122
2024-04-05T03:00:02.913Z,0.002478736
2024-04-05T03:05:02.228Z,0.002409883
2024-04-05T03:10:02.484Z,0.002975467
2024-04-05T03:15:04.022Z,0.003945396
2024-04-05T03:20:02.356Z,0.005019441
2024-04-05T03:25:02.701Z,0.004892243
2024-04-05T03:30:04.363Z,0.005468357
2024-04-05T03:35:02.885Z,0.004518203
2024-04-05T03:40:02.304Z,0.003667213
2024-04-05T03:45:02.661Z,0.003659754
2024-04-05T03:50:03.043Z,0.002763004
2024-04-05T03:55:03.037Z,0.0037441
2024-04-05T04:00:02.362Z,0.005100281
2024-04-05T04:05:02.749Z,0.01004742
2024-04-05T04:10:03.993Z,0.020320507
2024-04-05T04:15:02.300Z,0.044305746
2024-04-05T04:20:02.613Z,0.097095177
2024-04-05T04:25:03.000Z,0.246815354
2024-04-05T04:30:02.317Z,0.564267457
2024-04-05T04:35:02.679Z,1.276702285
2024-04-05T04:40:03.065Z,2.900730848
2024-04-05T04:45:02.350Z,5.652251244
2024-04-05T04:50:02.803Z,7.523342609
2024-04-05T04:55:03.057Z,9.780875206
2024-04-05T05:00:02.294Z,14.41336155
2024-04-05T05:05:02.917Z,27.95586205
2024-04-05T05:10:02.180Z,32.43745804
2024-04-05T05:15:02.445Z,49.99266434
2024-04-05T05:20:02.844Z,66.01785278
2024-04-05T05:25:03.099Z,78.31661224
2024-04-05T05:30:02.359Z,79.14099884
2024-04-05T05:35:02.661Z,79.16405487
2024-04-05T05:40:02.969Z,86.19000244
2024-04-05T05:45:02.268Z,100.9941864
2024-04-05T05:50:02.583Z,204.7412415
2024-04-05T05:55:02.889Z,149.3460846
2024-04-05T06:00:02.758Z,244.8442535
2024-04-05T06:05:03.075Z,140.755127
2024-04-05T06:10:02.302Z,99.6359787
2024-04-05T06:15:03.426Z,85.40735626
2024-04-05T06:20:02.940Z,113.2043915
2024-04-05T06:25:02.175Z,265.3612366
2024-04-05T06:30:02.407Z,411.4171143
2024-04-05T06:35:03.502Z,380.2907715
2024-04-05T06:40:03.993Z,737.2763062
2024-04-05T06:45:03.124Z,814.1517334
2024-04-05T06:50:02.432Z,458.7228088
2024-04-05T06:55:03.641Z,544.4616089
2024-04-05T07:00:03.809Z,523.4561157
2024-04-05T07:05:03.080Z,719.5189209
2024-04-05T07:10:02.361Z,798.1620483
2024-04-05T07:15:02.686Z,1191.800415
2024-04-05T07:20:03.118Z,1124.322388
2024-04-05T07:25:03.579Z,996.1149292
2024-04-05T07:30:03.083Z,1058.178345
2024-04-05T07:35:02.394Z,1405.010376
2024-04-05T07:40:03.862Z,1157.117798
2024-04-05T07:45:03.526Z,1491.334229
2024-04-05T07:50:02.832Z,1507.765869
2024-04-05T07:55:04.754Z,1376.810669
2024-04-05T08:00:03.160Z,1589.085571
2024-04-05T08:05:03.443Z,1766.459961
2024-04-05T08:10:02.688Z,1499.862061
2024-04-05T08:15:03.726Z,1962.017334
2024-04-05T08:20:04.264Z,1981.456665
2024-04-05T08:25:03.938Z,2075.985107
2024-04-05T08:30:02.271Z,1794.754639
2024-04-05T08:35:02.554Z,2252.876465
2024-04-05T08:40:04.259Z,1554.880249
2024-04-05T08:45:03.872Z,1022.4021
2024-04-05T08:50:02.223Z,1133.260864
2024-04-05T08:55:02.538Z,872.8502197
2024-04-05T09:00:02.759Z,741.7111816
2024-04-05T09:05:03.107Z,852.8630981
2024-04-05T09:10:03.180Z,652.2381592
2024-04-05T09:15:02.484Z,991.5722656
2024-04-05T09:20:02.750Z,1774.098755
2024-04-05T09:25:03.050Z,1072.891968
2024-04-05T09:30:02.307Z,1730.752441
2024-04-05T09:35:02.646Z,1545.728638
2024-04-05T09:40:04.540Z,1417.641113
2024-04-05T09:45:02.919Z,1590.7771
2024-04-05T09:50:02.562Z,2228.104004
2024-04-05T09:55:02.845Z,2209.643799
2024-04-05T10:00:04.324Z,2136.115234
2024-04-05T10:05:04.232Z,2056.151855
2024-04-05T10:10:02.471Z,2031.421753
2024-04-05T10:15:04.184Z,2264.359619
2024-04-05T10:20:03.777Z,2455.287598
2024-04-05T10:25:03.035Z,2815.127197
2024-04-05T10:30:03.515Z,2589.802979
2024-04-05T10:35:02.958Z,2259.105957
2024-04-05T10:40:02.302Z,1610.767456
2024-04-05T10:45:02.871Z,1242.820435
2024-04-05T10:50:02.235Z,685.9537354
2024-04-05T10:55:02.604Z,471.3086243
2024-04-05T11:00:02.872Z,633.1259155
2024-04-05T11:05:03.175Z,696.5639038
2024-04-05T11:10:06.621Z,648.2699585
2024-04-05T11:15:04.043Z,950.9603271
2024-04-05T11:20:02.526Z,1170.115112
2024-04-05T11:25:02.867Z,806.4401245
2024-04-05T11:30:04.293Z,844.1033325
2024-04-05T11:35:03.188Z,1298.523804
2024-04-05T11:40:03.845Z,1477.16626
2024-04-05T11:45:03.131Z,3888.560791
2024-04-05T11:50:03.450Z,5300.621582
2024-04-05T11:55:02.740Z,3461.766113
2024-04-05T12:00:03.298Z,8615.939453
2024-04-05T12:05:03.773Z,1956.53833
2024-04-05T12:10:03.216Z,1495.869629
2024-04-05T12:15:02.472Z,1550.192871
2024-04-05T12:20:02.979Z,1451.52356
2024-04-05T12:25:02.370Z,1484.412231
2024-04-05T12:30:02.624Z,1500.857178
2024-04-05T12:35:03.134Z,1335.370605
2024-04-05T12:40:02.490Z,1329.747437
2024-04-05T12:45:02.715Z,1227.349365
2024-04-05T12:50:03.034Z,1221.940674
2024-04-05T12:55:02.294Z,627.4047241
2024-04-05T13:00:02.742Z,1052.682373
2024-04-05T13:05:03.060Z,1243.797485
2024-04-05T13:10:02.340Z,448.804657
2024-04-05T13:15:02.685Z,1205.05896
2024-04-05T13:20:02.979Z,2109.57251
2024-04-05T13:25:02.284Z,1525.679199
2024-04-05T13:30:02.638Z,958.0114136
2024-04-05T13:35:03.231Z,468.8476563
2024-04-05T13:40:02.537Z,300.5059814
2024-04-05T13:45:02.809Z,452.1070251
2024-04-05T13:50:03.129Z,290.0013428
2024-04-05T13:55:02.439Z,607.2613525
2024-04-05T14:00:02.785Z,476.9511108
2024-04-05T14:05:03.067Z,801.0319214
2024-04-05T14:10:02.364Z,1224.64502
2024-04-05T14:15:02.573Z,967.5516968
2024-04-05T14:20:02.974Z,409.043457
2024-04-05T14:25:02.459Z,329.5271301
2024-04-05T14:30:02.880Z,969.432373
2024-04-05T14:35:02.188Z,509.4236145
2024-04-05T14:40:02.636Z,1374.797241
2024-04-05T14:45:02.952Z,1484.736694
2024-04-05T14:50:02.200Z,1306.052734
2024-04-05T14:55:02.572Z,1352.317505
2024-04-05T15:00:02.757Z,1480.408325
2024-04-05T15:05:03.019Z,1765.867798
2024-04-05T15:10:02.330Z,2001.785767
2024-04-05T15:15:02.711Z,1773.299561
2024-04-05T15:20:03.091Z,1560.233032
2024-04-05T15:25:02.440Z,2149.581299
2024-04-05T15:30:02.718Z,900.1970825
2024-04-05T15:35:02.946Z,1319.891113
2024-04-05T15:40:02.229Z,653.3484497
2024-04-05T15:45:02.552Z,611.2727051
2024-04-05T15:50:02.870Z,605.756897
2024-04-05T15:55:02.199Z,592.6911621
2024-04-05T16:00:02.432Z,906.1347046
2024-04-05T16:05:02.744Z,1046.466919
2024-04-05T16:10:03.090Z,436.7380371
2024-04-05T16:15:03.482Z,551.1278687
2024-04-05T16:20:02.888Z,628.8838501
2024-04-05T16:25:02.278Z,632.4135742
2024-04-05T16:30:02.659Z,843.0973511
2024-04-05T16:35:02.994Z,630.946228
2024-04-05T16:40:02.271Z,541.0166626
2024-04-05T16:45:02.547Z,469.4292297
2024-04-05T16:50:02.805Z,493.5554504
2024-04-05T16:55:03.060Z,430.6907043
2024-04-05T17:00:02.333Z,372.2098083
2024-04-05T17:05:02.613Z,369.3188782
2024-04-05T17:10:02.871Z,331.879425
2024-04-05T17:15:03.113Z,321.7289734
2024-04-05T17:20:02.436Z,231.6271667
2024-04-05T17:25:02.699Z,175.2348633
2024-04-05T17:30:02.954Z,208.0604858
2024-04-05T17:35:02.285Z,148.0848389
2024-04-05T17:40:02.595Z,59.16469574
2024-04-05T17:45:02.845Z,93.08058929
2024-04-05T17:50:03.208Z,68.26475525
2024-04-05T17:55:02.429Z,46.41497421
2024-04-05T18:00:02.771Z,30.9086628
2024-04-05T18:05:03.041Z,9.46298027
2024-04-05T18:10:02.264Z,11.58307266
2024-04-05T18:15:02.690Z,8.513461113
2024-04-05T18:20:05.318Z,4.413461685
2024-04-05T18:25:02.774Z,2.037691832
2024-04-05T18:30:03.143Z,0.851134837
2024-04-05T18:35:02.369Z,0.358625978
2024-04-05T18:40:02.662Z,0.159540638
2024-04-05T18:45:03.085Z,0.072514668
2024-04-05T18:50:02.375Z,0.033350475
2024-04-05T18:55:02.753Z,0.016925514
2024-04-05T19:00:03.106Z,0.006734389
2024-04-05T19:05:02.453Z,0.004858323
2024-04-05T19:10:02.857Z,0.003619127
2024-04-05T19:15:03.176Z,0.003304982
2024-04-05T19:20:02.626Z,0.002754152
2024-04-05T19:25:03.552Z,0.001458956
2024-04-05T19:30:02.939Z,0.001434126
2024-04-05T19:35:02.431Z,0.001790198
2024-04-05T19:40:02.739Z,0.001721345
2024-04-05T19:45:03.036Z,0.001859052
2024-04-05T19:50:03.786Z,0.001149146
2024-04-05T19:55:02.318Z,0.001410459
2024-04-05T20:00:02.677Z,0.001388181
2024-04-05T20:05:03.005Z,0.001721345
2024-04-05T20:10:02.397Z,0.001368975
2024-04-05T20:15:02.776Z,0.001790198
2024-04-05T20:20:03.364Z,0.001149146
2024-04-05T20:25:02.713Z,0.001124612
2024-04-05T20:30:03.032Z,0.001059289
2024-04-05T20:35:02.405Z,0.001035676
2024-04-05T20:40:02.736Z,0.001035676
2024-04-05T20:45:03.060Z,0.00096994
2024-04-05T20:50:02.365Z,0.001035676
2024-04-05T20:55:02.721Z,0.001059289
2024-04-05T21:00:02.975Z,0.000929526
2024-04-05T21:05:02.341Z,0.000904488
2024-04-05T21:10:02.597Z,0.00083936
2024-04-05T21:15:02.914Z,0.00096994
2024-04-05T21:20:05.984Z,0.000774605
2024-04-05T21:25:02.819Z,0.000895099
2024-04-05T21:30:03.108Z,0.000815374
2024-04-05T21:35:02.366Z,0.000963953
2024-04-05T21:40:02.717Z,0.000881328
2024-04-05T21:45:03.039Z,0.000895099
2024-04-05T21:50:02.556Z,0.000749741
2024-04-05T21:55:02.949Z,0.000860672
2024-04-05T22:00:02.370Z,0.000774605
2024-04-05T22:05:02.800Z,0.000583232
2024-04-05T22:10:03.049Z,0.000826245
2024-04-05T22:15:02.368Z,0.000688538
2024-04-05T22:20:02.693Z,0.000815374
2024-04-05T22:25:03.002Z,0.001239368
2024-04-05T22:30:02.282Z,0.001124612
2024-04-05T22:35:02.901Z,0.001239368
2024-04-05T22:40:02.223Z,0.001239368
2024-04-05T22:45:02.490Z,0.00144593
2024-04-05T22:50:02.787Z,0.001652491
2024-04-05T22:55:03.033Z,0.001344801
2024-04-05T23:00:02.354Z,0.001927906
2024-04-05T23:05:02.790Z,0.001565028
2024-04-05T23:10:03.808Z,0.002272175
2024-04-05T23:15:03.064Z,0.003195734
2024-04-05T23:20:02.455Z,0.002029079
2024-04-05T23:25:03.016Z,0.002071352
2024-04-05T23:30:02.230Z,0.002624094
2024-04-05T23:35:02.556Z,0.004063502
2024-04-05T23:40:02.933Z,0.001874353
2024-04-05T23:45:02.245Z,0.001101661
2024-04-05T23:50:02.648Z,0.000881328
2024-04-05T23:55:02.888Z,0.000895099
